Time;durP1;ratioP1;P1;durP2;ratioP2;P2;SDS_P1;SDS_P2;PMS_P1;PMS_P2;Temp;Humidity;BMP_temperature;BMP_pressure;BME280_temperature;BME280_humidity;BME280_pressure;Samples;Min_cycle;Max_cycle;Signal;HPM_P1;HPM_P2
2022/07/16 00:02:25;;;;;;;7.40;2.55;;;;;;;18.83;54.67;102017.09;5099689;27;20490;-44
2022/07/16 00:04:54;;;;;;;5.38;2.67;;;;;;;18.84;54.91;102017.94;5136333;27;20069;-49
2022/07/16 00:07:22;;;;;;;4.60;2.38;;;;;;;18.86;54.87;102010.19;5111890;27;20482;-51
2022/07/16 00:09:50;;;;;;;6.03;2.58;;;;;;;18.85;54.88;102008.50;5125997;27;20498;-47
2022/07/16 00:12:17;;;;;;;6.28;2.53;;;;;;;18.84;55.10;102006.88;5116669;27;20042;-50
2022/07/16 00:14:45;;;;;;;5.20;2.65;;;;;;;18.82;55.40;102014.63;5106201;28;20417;-51
2022/07/16 00:17:12;;;;;;;5.55;3.00;;;;;;;18.80;55.57;102016.88;5091795;28;20390;-50
2022/07/16 00:19:40;;;;;;;8.85;3.10;;;;;;;18.80;55.65;102011.34;5124971;27;20041;-49
2022/07/16 00:22:08;;;;;;;5.45;2.70;;;;;;;18.81;55.65;102012.97;5129040;27;20047;-50
2022/07/16 00:24:36;;;;;;;5.90;2.92;;;;;;;18.80;55.72;102005.81;5108759;28;20031;-49
2022/07/16 00:27:04;;;;;;;6.38;3.17;;;;;;;18.77;55.87;102010.00;5111041;27;20043;-50
2022/07/16 00:29:31;;;;;;;6.53;2.95;;;;;;;18.77;55.95;102009.19;5108278;28;20036;-49
2022/07/16 00:31:59;;;;;;;5.05;2.90;;;;;;;18.72;56.26;102010.84;5110508;27;20053;-49
2022/07/16 00:34:27;;;;;;;7.28;2.90;;;;;;;18.69;56.36;102005.91;5132086;27;20043;-49
2022/07/16 00:36:54;;;;;;;7.43;3.13;;;;;;;18.67;56.42;102008.16;5092564;28;20432;-50
2022/07/16 00:39:22;;;;;;;7.45;3.17;;;;;;;18.65;56.54;102002.09;5110794;27;20493;-51
2022/07/16 00:41:50;;;;;;;7.93;3.13;;;;;;;18.65;56.49;102002.09;5108407;27;20045;-50
2022/07/16 00:44:18;;;;;;;5.22;2.40;;;;;;;18.64;56.75;102003.22;5104699;28;20042;-47
2022/07/16 00:46:47;;;;;;;7.70;2.92;;;;;;;18.63;56.84;102003.50;5114002;27;20043;-48
2022/07/16 00:49:16;;;;;;;7.28;3.08;;;;;;;18.62;56.98;102004.63;5114852;28;20046;-48
2022/07/16 00:51:47;;;;;;;6.90;2.92;;;;;;;18.62;56.85;102005.44;5132793;27;20045;-46
2022/07/16 00:54:15;;;;;;;8.35;3.17;;;;;;;18.62;57.02;101999.09;5127334;27;20039;-49
2022/07/16 00:56:43;;;;;;;9.35;3.30;;;;;;;18.60;57.18;102004.91;5113576;27;20041;-49
2022/07/16 00:59:12;;;;;;;6.72;2.63;;;;;;;18.61;57.25;102000.22;5107771;27;20050;-50
2022/07/16 01:01:40;;;;;;;4.88;2.70;;;;;;;18.57;57.38;101996.38;5134762;27;20081;-49
2022/07/16 01:04:14;;;;;;;6.43;2.40;;;;;;;18.57;57.48;101991.69;5117385;27;20062;-49
2022/07/16 01:06:43;;;;;;;7.95;2.75;;;;;;;18.61;57.45;101987.22;5087966;27;20035;-48
2022/07/16 01:09:10;;;;;;;9.32;2.90;;;;;;;18.64;57.48;101992.19;5129675;27;20054;-49
2022/07/16 01:11:38;;;;;;;6.00;2.80;;;;;;;18.66;57.61;101998.19;5131973;27;20040;-47
2022/07/16 01:14:07;;;;;;;4.60;2.00;;;;;;;18.67;57.87;102002.63;5116741;27;20046;-49
2022/07/16 01:16:34;;;;;;;6.03;3.25;;;;;;;18.67;57.87;101994.34;5104303;28;20040;-48
2022/07/16 01:19:02;;;;;;;9.55;3.20;;;;;;;18.69;57.95;101992.09;5112403;27;20529;-50
2022/07/16 01:21:30;;;;;;;8.52;2.83;;;;;;;18.66;58.07;101994.63;5098666;27;20428;-50
2022/07/16 01:23:58;;;;;;;6.07;2.65;;;;;;;18.63;58.34;101990.50;5119478;27;20289;-50
2022/07/16 01:26:25;;;;;;;5.55;2.50;;;;;;;18.64;58.36;101991.31;5134381;27;20035;-49
2022/07/16 01:28:53;;;;;;;8.00;2.53;;;;;;;18.66;58.51;101986.34;5130138;27;20054;-48
2022/07/16 01:31:20;;;;;;;5.82;3.03;;;;;;;18.67;58.74;101980.53;5101820;27;20405;-49
2022/07/16 01:34:24;;;;;;;5.25;2.55;;;;;;;18.68;58.54;101987.69;5120096;27;20059;-50
2022/07/16 01:36:38;;;;;;;7.45;3.20;;;;;;;18.66;58.54;101991.84;5132670;27;20039;-48
2022/07/16 01:39:06;;;;;;;8.18;3.28;;;;;;;18.62;58.60;101994.41;5087968;27;20047;-49
2022/07/16 01:41:34;;;;;;;8.70;2.60;;;;;;;18.59;58.70;101986.72;5100754;27;20043;-48
2022/07/16 01:44:02;;;;;;;6.13;2.97;;;;;;;18.57;58.76;101996.38;5128423;27;20040;-48
2022/07/16 01:46:29;;;;;;;7.22;2.80;;;;;;;18.52;59.00;101991.78;5130606;27;20497;-49
2022/07/16 01:48:58;;;;;;;8.65;2.83;;;;;;;18.50;59.16;101994.00;5124145;27;20037;-48
2022/07/16 01:51:25;;;;;;;7.68;2.97;;;;;;;18.46;59.28;101990.97;5127194;27;20036;-49
2022/07/16 01:53:53;;;;;;;7.63;3.00;;;;;;;18.47;59.35;101997.31;5121295;27;20035;-48
2022/07/16 01:56:21;;;;;;;8.23;3.13;;;;;;;18.46;59.54;101993.75;5133254;27;20043;-47
2022/07/16 01:58:49;;;;;;;7.28;3.20;;;;;;;18.47;59.38;101997.31;5133355;27;20038;-47
2022/07/16 02:01:16;;;;;;;9.10;3.30;;;;;;;18.48;59.37;101994.28;5127565;28;20039;-47
2022/07/16 02:03:44;;;;;;;5.82;3.08;;;;;;;18.46;59.50;101990.97;5107735;28;20038;-47
2022/07/16 02:06:12;;;;;;;7.43;3.10;;;;;;;18.44;59.43;101993.22;5134135;28;20039;-49
2022/07/16 02:08:40;;;;;;;10.27;3.58;;;;;;;18.41;59.58;101988.28;5132683;28;20496;-47
2022/07/16 02:11:08;;;;;;;6.85;2.92;;;;;;;18.38;59.93;101993.56;5115029;28;20036;-48
2022/07/16 02:13:35;;;;;;;9.15;3.20;;;;;;;18.38;59.93;101994.41;5124656;28;20046;-47
2022/07/16 02:16:03;;;;;;;8.05;3.28;;;;;;;18.38;59.75;101990.81;5133835;28;20045;-48
2022/07/16 02:18:31;;;;;;;4.63;2.45;;;;;;;18.39;59.88;101986.94;5133292;28;20050;-48
2022/07/16 02:20:59;;;;;;;5.07;2.70;;;;;;;18.40;59.87;101980.28;5133465;28;20035;-50
2022/07/16 02:23:27;;;;;;;10.73;3.20;;;;;;;18.38;60.02;101993.56;5114959;27;20114;-47
2022/07/16 02:25:55;;;;;;;8.52;3.17;;;;;;;18.34;60.33;101992.50;5114492;27;20118;-50
2022/07/16 02:28:23;;;;;;;8.27;3.30;;;;;;;18.29;60.37;101985.91;5137483;27;20035;-50
2022/07/16 02:30:50;;;;;;;8.63;2.90;;;;;;;18.26;60.76;101992.03;5137971;27;20041;-48
2022/07/16 02:33:20;;;;;;;5.60;2.75;;;;;;;18.26;60.90;101985.69;5137792;27;20043;-50
2022/07/16 02:35:48;;;;;;;8.05;3.08;;;;;;;18.26;60.78;101989.28;5119123;27;20067;-49
2022/07/16 02:38:15;;;;;;;8.45;3.10;;;;;;;18.24;60.92;101982.41;5136326;27;20061;-47
2022/07/16 02:40:44;;;;;;;10.52;3.05;;;;;;;18.22;61.01;101985.44;5134543;27;20063;-50
2022/07/16 02:43:12;;;;;;;8.98;3.47;;;;;;;18.20;61.11;101981.31;5134182;27;20046;-49
2022/07/16 02:45:41;;;;;;;9.35;3.13;;;;;;;18.19;61.23;101985.22;5133741;27;20153;-52
2022/07/16 02:48:10;;;;;;;8.02;3.20;;;;;;;18.16;61.28;101985.78;5095040;27;20046;-49
2022/07/16 02:50:38;;;;;;;6.03;3.00;;;;;;;18.14;61.39;101988.84;5113598;27;20111;-50
2022/07/16 02:53:07;;;;;;;6.97;3.00;;;;;;;18.14;61.46;101983.31;5116539;27;20569;-48
2022/07/16 02:55:35;;;;;;;7.90;3.70;;;;;;;18.13;61.34;101975.31;5124904;27;20122;-46
2022/07/16 02:58:02;;;;;;;7.68;3.35;;;;;;;18.12;61.34;101971.75;5122140;27;20043;-48
2022/07/16 03:00:30;;;;;;;4.85;2.90;;;;;;;18.14;61.21;101972.28;5124913;27;20036;-48
2022/07/16 03:02:59;;;;;;;6.05;3.10;;;;;;;18.16;61.08;101964.56;5114325;27;20055;-49
2022/07/16 03:05:27;;;;;;;11.60;3.80;;;;;;;18.16;60.99;101966.47;5137355;27;20035;-44
2022/07/16 03:07:54;;;;;;;7.95;3.47;;;;;;;18.16;61.00;101974.75;5135886;27;20051;-45
2022/07/16 03:10:22;;;;;;;7.70;3.75;;;;;;;18.16;61.07;101964.56;5126553;27;20043;-44
2022/07/16 03:12:50;;;;;;;7.63;3.60;;;;;;;18.17;60.94;101971.69;5102727;28;20051;-49
2022/07/16 03:15:17;;;;;;;7.82;3.83;;;;;;;18.14;61.21;101975.06;5088678;27;20046;-49
2022/07/16 03:17:45;;;;;;;7.50;3.88;;;;;;;18.12;61.29;101974.50;5137065;27;20043;-49
2022/07/16 03:20:13;;;;;;;8.18;3.70;;;;;;;18.13;61.45;101984.41;5137029;27;20058;-46
2022/07/16 03:22:47;;;;;;;8.45;3.60;;;;;;;18.13;61.24;101976.16;5120848;27;20050;-50
2022/07/16 03:25:16;;;;;;;10.18;4.13;;;;;;;18.14;61.54;101990.78;5134997;27;20039;-48
2022/07/16 03:27:44;;;;;;;9.23;3.97;;;;;;;18.12;61.58;101988.31;5135979;27;20035;-50
2022/07/16 03:30:12;;;;;;;7.03;3.50;;;;;;;18.11;61.88;101994.91;5124504;27;20046;-49
2022/07/16 03:32:40;;;;;;;10.73;4.10;;;;;;;18.09;61.98;101992.47;5129231;27;20036;-50
2022/07/16 03:35:09;;;;;;;8.05;3.85;;;;;;;18.06;62.27;101992.22;5132500;27;20520;-50
2022/07/16 03:40:24;;;;;;;10.38;4.35;;;;;;;18.03;62.56;102003.84;5110848;27;20047;-50
2022/07/16 03:42:52;;;;;;;10.52;4.30;;;;;;;18.01;62.88;102008.81;5134670;27;20401;-49
2022/07/16 03:45:20;;;;;;;10.60;4.15;;;;;;;17.98;62.98;102006.63;5118238;27;20051;-49
2022/07/16 03:47:48;;;;;;;9.48;4.25;;;;;;;17.95;63.35;102012.75;5117701;27;20042;-47
2022/07/16 03:50:15;;;;;;;9.93;4.00;;;;;;;17.90;63.65;102010.03;5104628;28;20060;-48
2022/07/16 03:52:44;;;;;;;8.10;4.20;;;;;;;17.91;63.98;102018.00;5104233;27;20108;-46
2022/07/16 03:55:13;;;;;;;10.07;4.30;;;;;;;17.92;64.17;102018.81;5136156;27;20050;-50
2022/07/16 03:57:41;;;;;;;9.45;3.67;;;;;;;17.90;64.20;102021.88;5097210;27;20386;-49
2022/07/16 04:00:10;;;;;;;7.93;3.90;;;;;;;17.90;64.43;102019.13;5108416;27;20047;-49
2022/07/16 04:02:38;;;;;;;8.88;3.97;;;;;;;17.87;64.67;102017.75;5132405;27;20487;-47
2022/07/16 04:05:06;;;;;;;7.90;3.65;;;;;;;17.86;64.99;102026.31;5134780;27;20039;-47
2022/07/16 04:07:34;;;;;;;11.38;4.22;;;;;;;17.84;65.35;102017.50;5128808;27;20039;-47
2022/07/16 04:10:02;;;;;;;6.43;3.58;;;;;;;17.84;65.73;102021.06;5117481;27;20046;-47
2022/07/16 04:12:30;;;;;;;7.53;3.63;;;;;;;17.85;65.75;102024.69;5133509;27;20047;-50
2022/07/16 04:14:58;;;;;;;7.82;3.72;;;;;;;17.85;66.16;102027.44;5135809;27;20042;-48
2022/07/16 04:17:26;;;;;;;8.02;3.75;;;;;;;17.86;66.21;102029.88;5132975;27;20031;-48
2022/07/16 04:19:54;;;;;;;9.82;4.00;;;;;;;17.88;66.59;102029.59;5113448;27;20056;-46
2022/07/16 04:22:21;;;;;;;8.23;4.10;;;;;;;17.88;66.97;102030.41;5114417;27;20114;-48
2022/07/16 04:24:49;;;;;;;11.38;4.20;;;;;;;17.86;67.30;102032.63;5123905;27;20042;-47
2022/07/16 04:27:17;;;;;;;11.82;4.28;;;;;;;17.86;67.52;102038.16;5134958;27;20046;-49
2022/07/16 04:29:45;;;;;;;9.43;3.92;;;;;;;17.84;67.97;102034.84;5135510;27;20154;-48
2022/07/16 04:32:12;;;;;;;8.45;4.50;;;;;;;17.83;68.14;102041.50;5134355;27;20039;-48
2022/07/16 04:34:40;;;;;;;9.13;4.20;;;;;;;17.80;68.51;102036.56;5135208;27;20585;-48
2022/07/16 04:37:07;;;;;;;8.70;3.97;;;;;;;17.79;69.40;102040.38;5107391;27;20039;-48
2022/07/16 04:39:35;;;;;;;10.32;4.20;;;;;;;17.76;69.94;102043.72;5125005;27;20462;-48
2022/07/16 04:42:03;;;;;;;9.40;4.22;;;;;;;17.74;70.84;102045.13;5134060;27;20065;-49
2022/07/16 04:44:30;;;;;;;10.43;4.68;;;;;;;17.73;71.61;102052.56;5117467;27;20054;-48
2022/07/16 04:46:58;;;;;;;11.02;4.75;;;;;;;17.69;72.89;102045.97;5109265;27;20038;-47
2022/07/16 04:49:26;;;;;;;10.35;4.82;;;;;;;17.65;74.13;102044.88;5110110;28;20040;-49
2022/07/16 04:51:53;;;;;;;10.68;4.88;;;;;;;17.57;75.61;102048.25;5127789;27;20046;-50
2022/07/16 04:54:21;;;;;;;15.20;5.47;;;;;;;17.55;76.96;102053.22;5125913;27;20062;-48
2022/07/16 04:56:48;;;;;;;11.98;4.95;;;;;;;17.52;77.90;102057.38;5115439;27;20039;-49
2022/07/16 04:59:16;;;;;;;11.75;5.60;;;;;;;17.53;78.45;102058.19;5134750;27;20112;-51
2022/07/16 05:01:44;;;;;;;10.75;5.32;;;;;;;17.53;79.98;102067.28;5129701;27;20530;-47
2022/07/16 05:04:11;;;;;;;12.77;5.28;;;;;;;17.49;81.27;102070.91;5124971;27;20154;-49
2022/07/16 05:06:39;;;;;;;12.02;5.22;;;;;;;17.40;82.22;102062.41;5127967;27;20039;-49
2022/07/16 05:09:07;;;;;;;11.43;5.35;;;;;;;17.40;83.30;102068.75;5129663;27;20043;-48
2022/07/16 05:11:34;;;;;;;10.52;4.93;;;;;;;17.38;84.46;102065.44;5134512;27;20036;-52
2022/07/16 05:14:02;;;;;;;9.40;4.53;;;;;;;17.35;85.33;102065.19;5132090;27;20126;-50
2022/07/16 05:16:29;;;;;;;10.13;4.88;;;;;;;17.41;85.25;102081.44;5129752;27;20043;-47
2022/07/16 05:18:57;;;;;;;9.80;4.72;;;;;;;17.42;86.02;102085.00;5121277;27;20044;-49
2022/07/16 05:21:25;;;;;;;7.95;3.95;;;;;;;17.37;86.51;102085.84;5124710;27;20489;-49
2022/07/16 05:23:52;;;;;;;11.63;4.97;;;;;;;17.41;86.48;102081.44;5115669;27;20114;-49
2022/07/16 05:26:20;;;;;;;11.23;4.68;;;;;;;17.49;86.63;102084.69;5128946;27;20045;-49
2022/07/16 05:28:48;;;;;;;9.85;4.65;;;;;;;17.50;86.74;102084.41;5114426;27;20046;-50
2022/07/16 05:31:15;;;;;;;9.50;4.22;;;;;;;17.53;86.76;102094.03;5133962;27;20050;-49
2022/07/16 05:33:43;;;;;;;10.10;4.35;;;;;;;17.51;87.17;102093.47;5133673;27;20039;-49
2022/07/16 05:36:11;;;;;;;9.77;4.10;;;;;;;17.48;87.44;102080.28;5124977;27;20043;-48
2022/07/16 05:38:38;;;;;;;11.73;4.18;;;;;;;17.52;87.70;102095.16;5134119;27;20442;-53
2022/07/16 05:41:06;;;;;;;11.15;4.25;;;;;;;17.55;87.95;102094.56;5126745;27;20134;-47
2022/07/16 05:43:34;;;;;;;9.57;4.13;;;;;;;17.55;87.78;102111.94;5133311;27;20035;-48
2022/07/16 05:46:01;;;;;;;9.32;3.95;;;;;;;17.55;87.34;102097.31;5132581;27;20035;-49
2022/07/16 05:48:29;;;;;;;8.48;3.58;;;;;;;17.59;87.36;102102.00;5115871;27;20122;-49
2022/07/16 05:50:57;;;;;;;11.27;3.65;;;;;;;17.65;87.07;102098.09;5133576;27;20032;-50
2022/07/16 05:53:24;;;;;;;7.20;3.28;;;;;;;17.71;86.28;102101.66;5123522;27;20494;-50
2022/07/16 05:55:52;;;;;;;6.97;3.13;;;;;;;17.69;85.98;102101.09;5130542;27;20039;-49
2022/07/16 05:58:20;;;;;;;8.80;3.67;;;;;;;17.65;85.89;102108.28;5105567;28;20039;-51
2022/07/16 06:00:47;;;;;;;9.70;3.80;;;;;;;17.63;85.76;102105.00;5133051;27;20043;-49
2022/07/16 06:03:15;;;;;;;6.57;3.45;;;;;;;17.56;86.17;102105.31;5133537;28;20089;-48
2022/07/16 06:05:43;;;;;;;6.93;3.00;;;;;;;17.55;85.95;102108.34;5129617;28;20070;-50
2022/07/16 06:08:11;;;;;;;7.63;3.20;;;;;;;17.63;85.84;102105.00;5126104;28;20043;-47
2022/07/16 06:10:38;;;;;;;10.40;3.33;;;;;;;17.66;85.18;102116.28;5134105;28;20066;-48
2022/07/16 06:13:07;;;;;;;11.63;3.70;;;;;;;17.68;84.55;102114.06;5132024;28;20062;-45
2022/07/16 06:15:35;;;;;;;8.15;3.22;;;;;;;17.68;84.18;102124.28;5133881;28;20110;-50
2022/07/16 06:18:03;;;;;;;11.60;3.40;;;;;;;17.66;84.71;102126.50;5107645;28;20039;-47
2022/07/16 06:20:31;;;;;;;7.53;2.92;;;;;;;17.69;84.29;102142.44;5114973;28;20394;-47
2022/07/16 06:22:59;;;;;;;8.25;2.95;;;;;;;17.67;81.10;102136.41;5114364;28;20035;-47
2022/07/16 06:25:26;;;;;;;6.38;2.60;;;;;;;17.62;80.42;102136.44;5133786;28;20039;-48
2022/07/16 06:27:54;;;;;;;12.30;3.10;;;;;;;17.66;80.65;102137.53;5132751;28;20027;-49
2022/07/16 06:30:22;;;;;;;6.30;2.75;;;;;;;17.74;80.75;102136.91;5124139;28;20035;-46
2022/07/16 06:32:49;;;;;;;6.85;2.75;;;;;;;17.78;80.38;102140.75;5127846;28;20489;-44
2022/07/16 06:35:17;;;;;;;8.90;2.63;;;;;;;17.74;79.95;102149.88;5126730;28;20483;-45
2022/07/16 06:37:45;;;;;;;6.57;2.08;;;;;;;17.72;79.19;102147.38;5119820;28;20032;-46
2022/07/16 06:40:12;;;;;;;5.60;2.20;;;;;;;17.76;78.89;102145.72;5109790;28;20537;-44
2022/07/16 06:42:40;;;;;;;5.18;2.20;;;;;;;17.83;78.65;102154.53;5128875;28;20043;-50
2022/07/16 06:45:09;;;;;;;6.43;2.42;;;;;;;17.93;78.16;102150.06;5095891;28;20043;-53
2022/07/16 06:47:37;;;;;;;9.30;2.33;;;;;;;17.96;76.60;102153.06;5132985;28;20042;-49
2022/07/16 06:50:05;;;;;;;7.57;2.38;;;;;;;17.99;75.92;102151.69;5112267;28;20035;-51
2022/07/16 06:52:32;;;;;;;5.45;2.00;;;;;;;17.91;75.44;102155.03;5115014;28;20426;-49
2022/07/16 06:55:00;;;;;;;5.03;1.73;;;;;;;17.93;72.60;102166.63;5130562;28;20048;-51
2022/07/16 06:57:28;;;;;;;9.65;2.55;;;;;;;17.93;71.27;102158.34;5113883;28;20063;-48
2022/07/16 06:59:55;;;;;;;5.40;2.00;;;;;;;17.95;71.22;102169.94;5132972;28;20039;-49
2022/07/16 07:02:23;;;;;;;6.88;2.20;;;;;;;18.01;71.07;102174.28;5132793;28;20122;-50
2022/07/16 07:04:50;;;;;;;5.93;2.25;;;;;;;18.03;71.74;102180.34;5119697;28;20043;-48
2022/07/16 07:07:18;;;;;;;5.38;2.60;;;;;;;18.03;69.75;102174.81;5113671;28;20065;-49
2022/07/16 07:09:47;;;;;;;5.50;2.20;;;;;;;18.08;69.48;102183.06;5130352;27;20070;-48
2022/07/16 07:12:14;;;;;;;6.30;2.10;;;;;;;18.10;69.09;102183.59;5131121;27;20034;-48
2022/07/16 07:14:42;;;;;;;7.40;2.22;;;;;;;18.16;67.08;102203.69;5131697;27;20043;-48
2022/07/16 07:17:10;;;;;;;5.68;2.10;;;;;;;18.15;68.03;102197.38;5136894;27;20031;-49
2022/07/16 07:19:37;;;;;;;9.40;2.33;;;;;;;18.09;67.07;102195.75;5131323;27;20050;-47
2022/07/16 07:22:05;;;;;;;6.25;2.15;;;;;;;18.05;67.56;102205.72;5090393;27;20043;-50
2022/07/16 07:24:33;;;;;;;8.25;2.20;;;;;;;18.12;67.64;102202.66;5128414;27;20031;-49
2022/07/16 07:27:14;;;;;;;4.82;2.25;;;;;;;18.14;67.42;102204.00;5121882;27;20050;-47
2022/07/16 07:29:41;;;;;;;3.35;1.80;;;;;;;18.16;65.66;102217.50;5129596;27;20052;-48
2022/07/16 07:32:09;;;;;;;5.57;2.25;;;;;;;18.09;62.18;102209.56;5135261;27;20122;-49
2022/07/16 07:34:36;;;;;;;8.15;2.33;;;;;;;18.07;63.32;102225.56;5136275;27;20035;-48
2022/07/16 07:37:04;;;;;;;6.43;2.45;;;;;;;18.05;64.33;102227.78;5101295;28;20040;-48
2022/07/16 07:39:32;;;;;;;6.00;2.33;;;;;;;18.07;65.37;102214.53;5133350;27;20501;-45
2022/07/16 07:41:59;;;;;;;7.38;2.15;;;;;;;18.10;65.78;102236.03;5125815;27;20059;-48
2022/07/16 07:44:27;;;;;;;5.18;1.95;;;;;;;18.09;65.38;102221.41;5130331;27;20035;-47
2022/07/16 07:46:54;;;;;;;5.70;2.17;;;;;;;18.16;65.10;102217.50;5135950;27;20032;-47
2022/07/16 07:49:22;;;;;;;8.05;2.40;;;;;;;18.21;64.46;102221.06;5123930;27;20045;-47
2022/07/16 07:51:50;;;;;;;7.20;2.40;;;;;;;18.25;63.42;102227.63;5127004;27;20095;-48
2022/07/16 07:54:17;;;;;;;8.90;2.25;;;;;;;18.26;63.91;102226.53;5130073;27;20513;-48
2022/07/16 07:56:45;;;;;;;7.07;2.10;;;;;;;18.31;63.30;102226.50;5128646;27;20130;-45
2022/07/16 07:59:13;;;;;;;6.28;2.10;;;;;;;18.36;61.98;102222.06;5129068;27;20482;-47
2022/07/16 08:01:40;;;;;;;5.10;2.08;;;;;;;18.39;60.00;102225.06;5129038;27;20047;-46
2022/07/16 08:04:09;;;;;;;6.20;2.03;;;;;;;18.40;59.29;102235.00;5135683;27;20500;-47
2022/07/16 08:06:37;;;;;;;9.23;2.55;;;;;;;18.37;57.14;102241.09;5111545;27;20043;-49
2022/07/16 08:09:05;;;;;;;5.25;1.92;;;;;;;18.31;57.60;102221.00;5129966;27;20044;-46
2022/07/16 08:11:33;;;;;;;7.90;2.28;;;;;;;18.38;57.58;102236.41;5132514;27;20508;-50
2022/07/16 08:14:01;;;;;;;7.13;2.15;;;;;;;18.41;57.06;102231.13;5118278;27;20028;-49
2022/07/16 08:16:48;;;;;;;5.68;2.22;;;;;;;18.36;57.36;102246.91;5127516;27;20031;-48
2022/07/16 08:19:16;;;;;;;5.45;2.10;;;;;;;18.32;57.52;102241.13;5125606;27;20049;-45
2022/07/16 08:21:44;;;;;;;3.53;1.90;;;;;;;18.34;57.87;102251.88;5132926;27;20401;-48
2022/07/16 08:26:58;;;;;;;6.60;2.17;;;;;;;18.43;57.47;102248.22;5135542;27;20045;-47
2022/07/16 08:29:25;;;;;;;4.95;2.08;;;;;;;18.46;57.47;102255.13;5135685;27;20053;-48
2022/07/16 08:31:53;;;;;;;7.07;2.53;;;;;;;18.52;58.05;102248.47;5117421;27;20039;-49
2022/07/16 08:34:23;;;;;;;7.05;2.22;;;;;;;18.63;57.26;102254.72;5128927;27;20038;-47
2022/07/16 08:36:52;;;;;;;3.58;1.70;;;;;;;18.74;57.24;102262.63;5123836;27;20123;-50
2022/07/16 08:39:20;;;;;;;2.70;1.80;;;;;;;18.85;55.42;102265.34;5125174;27;20055;-49
2022/07/16 08:41:48;;;;;;;5.38;2.20;;;;;;;18.93;55.50;102271.09;5124085;27;20042;-51
2022/07/16 08:44:16;;;;;;;4.80;1.73;;;;;;;19.02;55.14;102267.69;5121304;27;20054;-49
2022/07/16 08:46:43;;;;;;;3.83;1.77;;;;;;;19.08;54.89;102277.59;5131385;27;20043;-46
2022/07/16 08:49:11;;;;;;;3.38;1.70;;;;;;;19.12;55.40;102285.00;5131870;27;20236;-49
2022/07/16 08:51:40;;;;;;;6.72;2.15;;;;;;;19.14;55.19;102277.22;5084298;27;20044;-49
2022/07/16 08:54:16;;;;;;;3.28;1.40;;;;;;;19.12;55.60;102285.00;5134311;27;20035;-47
2022/07/16 08:56:44;;;;;;;4.78;1.95;;;;;;;19.12;55.77;102285.00;5112228;27;20071;-47
2022/07/16 08:59:13;;;;;;;4.70;1.73;;;;;;;19.11;54.94;102288.06;5108722;27;20049;-46
2022/07/16 09:01:41;;;;;;;3.95;1.65;;;;;;;19.10;54.08;102303.00;5128390;27;20386;-51
2022/07/16 09:04:09;;;;;;;5.65;2.30;;;;;;;19.09;52.59;102293.03;5095549;27;20092;-51
2022/07/16 09:06:37;;;;;;;5.38;2.00;;;;;;;19.12;53.77;102297.97;5134122;27;20039;-48
2022/07/16 09:09:05;;;;;;;6.40;2.13;;;;;;;19.13;54.38;102289.41;5103980;27;20043;-51
2022/07/16 09:11:35;;;;;;;7.00;2.40;;;;;;;19.16;53.89;102302.63;5112355;27;20054;-50
2022/07/16 09:14:10;;;;;;;5.40;1.80;;;;;;;19.19;52.95;102298.47;5110393;28;20148;-51
2022/07/16 09:16:45;;;;;;;5.55;2.22;;;;;;;19.18;53.42;102304.31;5113393;27;20486;-50
2022/07/16 09:19:18;;;;;;;6.35;2.25;;;;;;;19.22;52.55;102310.88;5124819;27;20073;-49
2022/07/16 09:22:11;;;;;;;5.40;2.10;;;;;;;19.27;52.77;102319.16;5124882;27;20123;-48
2022/07/16 09:24:40;;;;;;;5.55;1.92;;;;;;;19.23;50.68;102307.84;5113695;27;20047;-49
2022/07/16 09:27:08;;;;;;;6.07;2.08;;;;;;;19.25;50.71;102304.78;5118126;27;20536;-49
2022/07/16 09:29:45;;;;;;;6.95;2.80;;;;;;;19.26;51.90;102311.94;5119821;27;20390;-48
2022/07/16 09:32:25;;;;;;;4.28;1.95;;;;;;;19.33;51.59;102321.53;5124596;27;20155;-47
2022/07/16 09:35:14;;;;;;;4.35;1.70;;;;;;;19.41;51.40;102313.75;5125159;27;20069;-46
2022/07/16 09:37:55;;;;;;;5.97;1.88;;;;;;;19.47;51.05;102315.34;5092837;28;20061;-47
2022/07/16 09:40:44;;;;;;;5.38;2.10;;;;;;;19.50;50.84;102312.81;5130059;27;20043;-44
2022/07/16 09:43:14;;;;;;;6.60;1.77;;;;;;;19.53;50.33;102328.84;5131546;27;20165;-49
2022/07/16 09:45:47;;;;;;;7.07;2.10;;;;;;;19.58;50.96;102319.66;5130440;27;20038;-47
2022/07/16 09:48:22;;;;;;;8.48;2.30;;;;;;;19.64;50.12;102323.19;5104807;28;20039;-49
2022/07/16 09:50:51;;;;;;;7.13;2.25;;;;;;;19.47;49.71;102318.94;5120592;27;20031;-50
2022/07/16 09:53:21;;;;;;;5.90;2.13;;;;;;;19.43;50.21;102317.84;5108554;27;20043;-47
2022/07/16 09:55:59;;;;;;;4.45;2.10;;;;;;;19.49;50.47;102335.25;5125591;27;20035;-49
2022/07/16 09:58:28;;;;;;;5.95;2.30;;;;;;;19.56;50.23;102316.38;5114690;27;20046;-49
2022/07/16 10:00:56;;;;;;;5.38;1.83;;;;;;;19.58;50.14;102331.53;5128631;27;20042;-49
2022/07/16 10:03:25;;;;;;;9.13;2.97;;;;;;;19.59;50.28;102332.38;5110392;28;20054;-49
2022/07/16 10:05:53;;;;;;;7.90;2.65;;;;;;;19.58;49.61;102328.78;5128190;28;20047;-49
2022/07/16 10:08:22;;;;;;;6.07;2.08;;;;;;;19.61;49.43;102326.56;5108251;28;20040;-48
2022/07/16 10:10:50;;;;;;;6.65;1.85;;;;;;;19.59;49.76;102327.66;5122922;28;20042;-51
2022/07/16 10:13:22;;;;;;;4.97;2.22;;;;;;;19.63;50.10;102338.16;5113961;28;20118;-52
2022/07/16 10:15:50;;;;;;;8.05;2.17;;;;;;;19.67;49.87;102333.66;5125229;28;20127;-51
2022/07/16 10:18:40;;;;;;;3.80;1.60;;;;;;;19.77;48.79;102339.09;5123084;28;20043;-49
2022/07/16 10:21:20;;;;;;;9.50;2.88;;;;;;;19.71;49.14;102334.75;5112098;28;20048;-53
2022/07/16 10:23:52;;;;;;;8.95;2.00;;;;;;;19.65;50.62;102338.66;5120445;28;20031;-51
2022/07/16 10:26:21;;;;;;;5.07;2.10;;;;;;;19.56;50.15;102338.50;5099415;28;20043;-53
2022/07/16 10:28:54;;;;;;;7.55;2.50;;;;;;;19.55;50.42;102343.19;5121199;28;20036;-50
2022/07/16 10:31:37;;;;;;;5.35;2.17;;;;;;;19.52;50.62;102348.47;5114622;28;20039;-49
2022/07/16 10:34:14;;;;;;;6.32;2.70;;;;;;;19.49;50.71;102347.13;5119468;28;20493;-51
2022/07/16 10:36:53;;;;;;;5.20;2.10;;;;;;;19.48;50.21;102358.44;5126987;28;20489;-50
2022/07/16 10:39:23;;;;;;;4.82;1.88;;;;;;;19.47;49.57;102352.09;5129334;28;20039;-46
2022/07/16 10:42:02;;;;;;;6.45;2.13;;;;;;;19.52;50.00;102345.72;5095329;28;20059;-49
2022/07/16 10:44:43;;;;;;;6.57;2.00;;;;;;;19.63;50.03;102343.69;5128486;27;20039;-47
2022/07/16 10:47:11;;;;;;;6.45;2.30;;;;;;;19.64;50.76;102359.97;5133879;27;20039;-48
2022/07/16 10:49:40;;;;;;;8.77;2.72;;;;;;;19.58;50.98;102352.84;5118968;27;20044;-50
2022/07/16 10:52:15;;;;;;;4.20;1.80;;;;;;;19.60;51.04;102361.66;5135259;27;20039;-50
2022/07/16 10:54:50;;;;;;;9.18;2.58;;;;;;;19.63;51.48;102369.38;5125284;27;20031;-51
2022/07/16 10:57:18;;;;;;;4.10;1.83;;;;;;;19.76;50.85;102365.13;5127066;27;20074;-53
2022/07/16 10:59:47;;;;;;;4.65;2.03;;;;;;;19.81;49.43;102367.84;5113111;27;20063;-53
2022/07/16 11:02:18;;;;;;;7.65;2.03;;;;;;;19.79;48.19;102370.06;5117159;27;20421;-55
2022/07/16 11:04:54;;;;;;;7.05;2.33;;;;;;;19.81;47.00;102369.78;5132003;27;20039;-52
2022/07/16 11:07:22;;;;;;;5.13;1.67;;;;;;;19.94;45.73;102377.38;5116790;27;20117;-47
2022/07/16 11:09:52;;;;;;;5.90;2.05;;;;;;;20.05;45.07;102375.31;5125133;27;20133;-49
2022/07/16 11:12:26;;;;;;;4.88;1.98;;;;;;;20.09;45.51;102370.88;5105853;27;20043;-49
2022/07/16 11:14:55;;;;;;;4.43;2.00;;;;;;;20.14;45.70;102376.34;5132588;27;20059;-47
2022/07/16 11:17:30;;;;;;;4.93;2.00;;;;;;;20.19;46.10;102373.50;5118871;27;20093;-50
2022/07/16 11:19:59;;;;;;;5.63;1.70;;;;;;;20.27;45.85;102366.47;5113392;27;20043;-48
2022/07/16 11:22:29;;;;;;;6.13;2.35;;;;;;;20.22;45.44;102372.91;5130458;27;20045;-47
2022/07/16 11:24:59;;;;;;;6.53;2.13;;;;;;;20.19;44.36;102381.81;5130735;27;21656;-48
2022/07/16 11:27:37;;;;;;;4.38;1.73;;;;;;;20.22;44.58;102378.44;5135087;27;20139;-44
2022/07/16 11:30:08;;;;;;;4.60;1.85;;;;;;;20.25;44.60;102365.94;5130444;27;20055;-50
2022/07/16 11:32:43;;;;;;;7.40;2.30;;;;;;;20.23;44.35;102382.88;5127335;27;20071;-48
2022/07/16 11:35:12;;;;;;;3.88;1.70;;;;;;;20.25;44.87;102391.69;5095295;27;20036;-48
2022/07/16 11:37:50;;;;;;;4.30;2.00;;;;;;;20.20;44.92;102378.75;5131903;27;20062;-49
2022/07/16 11:40:35;;;;;;;6.45;2.25;;;;;;;20.17;44.73;102371.03;5103789;27;20031;-52